Time;durP1;ratioP1;P1;durP2;ratioP2;P2;SDS_P1;SDS_P2;PMS_P1;PMS_P2;Temp;Humidity;BMP_temperature;BMP_pressure;BME280_temperature;BME280_humidity;BME280_pressure;Samples;Min_cycle;Max_cycle;Signal;HPM_P1;HPM_P2
2022/07/26 00:01:40;;;;;;;;;;;;;;;25.24;42.55;99924.91;5073813;28;19962;-68
2022/07/26 00:04:06;;;;;;;;;;;;;;;25.21;42.66;99929.03;5074146;28;19924;-68
2022/07/26 00:06:31;;;;;;;;;;;;;;;25.24;42.62;99925.72;5074055;28;19928;-68
2022/07/26 00:08:57;;;;;;;;;;;;;;;25.24;42.80;99916.72;5073702;28;19916;-68
2022/07/26 00:11:22;;;;;;;;;;;;;;;25.23;42.65;99913.16;5073579;28;19959;-68
2022/07/26 00:13:47;;;;;;;;;;;;;;;25.26;42.56;99918.06;5083177;28;20006;-68
2022/07/26 00:16:13;;;;;;;;;;;;;;;25.23;42.84;99918.63;5093831;28;19916;-68
2022/07/26 00:18:38;;;;;;;;;;;;;;;25.26;42.58;99917.25;5094141;28;19916;-67
2022/07/26 00:21:03;;;;;;;;;;;;;;;25.24;42.78;99909.31;5092892;28;20323;-67
2022/07/26 00:23:28;;;;;;;;;;;;;;;25.26;43.01;99918.06;5093656;28;19916;-67
2022/07/26 00:25:54;;;;;;;;;;;;;;;25.26;42.71;99917.25;5093648;28;19926;-67
2022/07/26 00:28:19;;;;;;;;;;;;;;;25.26;42.92;99918.06;5093931;28;19955;-67
2022/07/26 00:30:45;;;;;;;;;;;;;;;25.26;42.81;99923.53;5093635;28;19923;-67
2022/07/26 00:33:10;;;;;;;;;;;;;;;25.28;42.76;99921.31;5093594;28;20373;-67
2022/07/26 00:35:35;;;;;;;;;;;;;;;25.27;42.93;99916.94;5093920;28;19920;-67
2022/07/26 00:38:01;;;;;;;;;;;;;;;25.24;42.76;99914.78;5093953;28;20293;-67
2022/07/26 00:40:26;;;;;;;;;;;;;;;25.26;43.09;99907.13;5093546;28;19961;-67
2022/07/26 00:42:51;;;;;;;;;;;;;;;25.28;42.95;99907.66;5094418;28;19922;-67
2022/07/26 00:45:17;;;;;;;;;;;;;;;25.27;42.70;99914.22;5093882;28;19942;-67
2022/07/26 00:47:42;;;;;;;;;;;;;;;25.29;42.93;99912.00;5093810;28;20385;-67
2022/07/26 00:50:10;;;;;;;;;;;;;;;25.26;42.76;99912.59;5093669;28;20390;-67
2022/07/26 00:52:35;;;;;;;;;;;;;;;25.26;42.87;99904.38;5093881;28;20323;-67
2022/07/26 00:55:00;;;;;;;;;;;;;;;25.27;43.15;99908.75;5093770;28;19916;-67
2022/07/26 00:57:26;;;;;;;;;;;;;;;25.26;43.22;99901.66;5093770;28;19924;-67
2022/07/26 00:59:51;;;;;;;;;;;;;;;25.28;43.10;99907.66;5093703;28;19916;-67
2022/07/26 01:02:17;;;;;;;;;;;;;;;25.26;43.08;99900.84;5093723;28;19923;-67
2022/07/26 01:04:43;;;;;;;;;;;;;;;25.25;43.00;99905.50;5093684;28;20358;-67
2022/07/26 01:07:08;;;;;;;;;;;;;;;25.27;43.17;99907.94;5093622;28;19939;-67
2022/07/26 01:09:34;;;;;;;;;;;;;;;25.28;42.95;99893.97;5093350;28;20378;-67
2022/07/26 01:11:59;;;;;;;;;;;;;;;25.30;43.44;99896.38;5093540;28;19963;-67
2022/07/26 01:14:25;;;;;;;;;;;;;;;25.25;43.34;99889.09;5079308;28;20023;-67
2022/07/26 01:16:50;;;;;;;;;;;;;;;25.28;43.24;99896.72;5073335;28;19962;-67
2022/07/26 01:19:15;;;;;;;;;;;;;;;25.30;43.49;99893.66;5073069;28;20418;-67
2022/07/26 01:21:41;;;;;;;;;;;;;;;25.29;43.34;99894.78;5073291;28;19924;-67
2022/07/26 01:24:06;;;;;;;;;;;;;;;25.29;43.41;99894.78;5072880;28;19932;-67
2022/07/26 01:26:31;;;;;;;;;;;;;;;25.27;43.48;99894.28;5073210;28;19924;-67
2022/07/26 01:28:57;;;;;;;;;;;;;;;25.25;43.85;99897.31;5073230;28;20366;-67
2022/07/26 01:31:22;;;;;;;;;;;;;;;25.31;43.75;99898.03;5073100;28;19924;-67
2022/07/26 01:33:48;;;;;;;;;;;;;;;25.30;43.40;99897.22;5073174;28;20379;-67
2022/07/26 01:36:13;;;;;;;;;;;;;;;25.29;43.53;99895.59;5073211;28;19922;-67
2022/07/26 01:38:39;;;;;;;;;;;;;;;25.30;43.77;99886.28;5073001;28;20359;-67
2022/07/26 01:41:04;;;;;;;;;;;;;;;25.33;43.67;99886.78;5075622;28;19917;-67
2022/07/26 01:43:29;;;;;;;;;;;;;;;25.32;43.66;99891.47;5076305;28;20007;-67
2022/07/26 01:45:54;;;;;;;;;;;;;;;25.30;43.90;99886.28;5076609;28;19986;-67
2022/07/26 01:48:20;;;;;;;;;;;;;;;25.32;44.01;99898.81;5077405;28;19916;-67
2022/07/26 01:50:45;;;;;;;;;;;;;;;25.29;43.95;99890.13;5076474;28;19920;-67
2022/07/26 01:53:10;;;;;;;;;;;;;;;25.30;43.80;99891.75;5076452;28;19916;-67
2022/07/26 01:55:36;;;;;;;;;;;;;;;25.29;43.84;99892.03;5076477;28;19921;-67
2022/07/26 01:58:01;;;;;;;;;;;;;;;25.30;43.74;99886.28;5076479;28;19955;-67
2022/07/26 02:00:27;;;;;;;;;;;;;;;25.28;43.76;99893.97;5076313;28;19931;-67
2022/07/26 02:02:53;;;;;;;;;;;;;;;25.30;43.81;99886.28;5076328;28;20366;-67
2022/07/26 02:05:18;;;;;;;;;;;;;;;25.34;44.00;99891.97;5076322;28;20422;-67
2022/07/26 02:07:43;;;;;;;;;;;;;;;25.33;43.66;99884.06;5075947;28;19987;-67
2022/07/26 02:10:09;;;;;;;;;;;;;;;25.33;43.55;99889.53;5075767;28;19920;-67
2022/07/26 02:12:35;;;;;;;;;;;;;;;25.33;43.81;99892.25;5076175;28;19917;-67
2022/07/26 02:15:00;;;;;;;;;;;;;;;25.32;44.18;99879.69;5093928;28;20359;-67
2022/07/26 02:17:25;;;;;;;;;;;;;;;25.32;44.22;99883.25;5096373;28;19931;-67
2022/07/26 02:19:51;;;;;;;;;;;;;;;25.34;44.03;99880.22;5096367;28;19916;-67
2022/07/26 02:22:17;;;;;;;;;;;;;;;25.32;43.73;99882.41;5096190;28;20374;-67
2022/07/26 02:24:43;;;;;;;;;;;;;;;25.30;43.96;99880.81;5095898;28;19924;-67
2022/07/26 02:27:08;;;;;;;;;;;;;;;25.30;44.03;99877.25;5095808;28;19916;-66
2022/07/26 02:29:33;;;;;;;;;;;;;;;25.30;44.09;99880.81;5096127;28;19918;-66
2022/07/26 02:31:59;;;;;;;;;;;;;;;25.29;44.08;99873.72;5095889;28;19916;-66
2022/07/26 02:34:24;;;;;;;;;;;;;;;25.29;44.12;99872.91;5096029;28;20274;-66
2022/07/26 02:36:49;;;;;;;;;;;;;;;25.29;44.02;99873.72;5095973;28;20362;-66
2022/07/26 02:39:15;;;;;;;;;;;;;;;25.32;43.93;99876.94;5095846;28;20386;-67
2022/07/26 02:41:40;;;;;;;;;;;;;;;25.29;44.03;99875.63;5095934;28;19923;-67
2022/07/26 02:44:06;;;;;;;;;;;;;;;25.30;44.23;99877.25;5095999;28;19920;-67
2022/07/26 02:46:31;;;;;;;;;;;;;;;25.31;44.25;99878.88;5096014;28;19916;-67
2022/07/26 02:48:56;;;;;;;;;;;;;;;25.30;44.28;99880.81;5095794;28;19916;-67
2022/07/26 02:51:21;;;;;;;;;;;;;;;25.33;43.97;99870.38;5095148;28;19923;-67
2022/07/26 02:53:47;;;;;;;;;;;;;;;25.33;44.32;99867.66;5095418;28;19923;-67
2022/07/26 02:56:12;;;;;;;;;;;;;;;25.34;44.47;99872.03;5095555;28;20010;-67
2022/07/26 02:58:37;;;;;;;;;;;;;;;25.33;44.05;99873.13;5095465;28;19916;-67
2022/07/26 03:01:03;;;;;;;;;;;;;;;25.35;44.14;99868.16;5095503;28;20479;-67
2022/07/26 03:03:28;;;;;;;;;;;;;;;25.29;44.47;99856.50;5095561;28;19917;-67
2022/07/26 03:05:53;;;;;;;;;;;;;;;25.28;44.41;99861.16;5095136;28;19924;-67
2022/07/26 03:08:19;;;;;;;;;;;;;;;25.36;44.55;99856.13;5095366;28;19917;-67
2022/07/26 03:10:44;;;;;;;;;;;;;;;25.32;44.25;99864.09;5095228;28;20362;-67
2022/07/26 03:13:10;;;;;;;;;;;;;;;25.32;44.59;99860.53;5092803;28;20351;-67
2022/07/26 03:15:35;;;;;;;;;;;;;;;25.33;44.38;99862.19;5074901;28;20057;-67
2022/07/26 03:18:01;;;;;;;;;;;;;;;25.35;44.46;99854.47;5074898;28;20283;-68
2022/07/26 03:20:26;;;;;;;;;;;;;;;25.34;44.29;99856.41;5074535;28;20358;-68
2022/07/26 03:22:51;;;;;;;;;;;;;;;25.36;44.50;99856.13;5074816;28;19923;-68
2022/07/26 03:25:16;;;;;;;;;;;;;;;25.36;44.20;99856.13;5074475;28;20020;-68
2022/07/26 03:27:42;;;;;;;;;;;;;;;25.36;44.43;99850.66;5074416;28;19916;-68
2022/07/26 03:30:07;;;;;;;;;;;;;;;25.36;44.52;99853.38;5074316;28;19963;-68
2022/07/26 03:32:32;;;;;;;;;;;;;;;25.38;44.33;99853.88;5074509;28;19917;-67
2022/07/26 03:34:58;;;;;;;;;;;;;;;25.39;44.33;99852.75;5074280;28;19922;-67
2022/07/26 03:37:23;;;;;;;;;;;;;;;25.37;44.22;99846.78;5074598;28;19924;-67
2022/07/26 03:39:48;;;;;;;;;;;;;;;25.39;44.46;99847.28;5074366;28;20420;-67
2022/07/26 03:42:13;;;;;;;;;;;;;;;25.38;44.46;99842.94;5074381;28;19916;-67
2022/07/26 03:44:39;;;;;;;;;;;;;;;25.38;44.38;99838.28;5074472;28;19917;-67
2022/07/26 03:47:04;;;;;;;;;;;;;;;25.40;44.33;99835.25;5074476;28;19917;-67
2022/07/26 03:49:29;;;;;;;;;;;;;;;25.38;44.19;99832.00;5074353;28;19951;-67
2022/07/26 03:51:55;;;;;;;;;;;;;;;25.41;44.37;99831.41;5074205;28;19991;-67
2022/07/26 03:54:20;;;;;;;;;;;;;;;25.40;44.39;99838.78;5074449;28;19923;-67
2022/07/26 03:56:45;;;;;;;;;;;;;;;25.43;44.65;99829.19;5073921;28;19943;-67
2022/07/26 03:59:10;;;;;;;;;;;;;;;25.40;44.44;99837.97;5074203;28;20008;-67
2022/07/26 04:01:40;;;;;;;;;;;;;;;25.40;44.51;99837.97;5073902;28;19916;-67
2022/07/26 04:04:05;;;;;;;;;;;;;;;25.42;44.47;99838.50;5073626;28;19990;-67
2022/07/26 04:06:31;;;;;;;;;;;;;;;25.44;44.43;99836.25;5074136;28;20379;-68
2022/07/26 04:08:56;;;;;;;;;;;;;;;25.44;44.45;99841.72;5074055;28;19923;-68
2022/07/26 04:11:21;;;;;;;;;;;;;;;25.43;44.67;99829.19;5074055;28;20405;-68
2022/07/26 04:13:46;;;;;;;;;;;;;;;25.39;44.45;99828.13;5080136;28;20288;-68
2022/07/26 04:16:12;;;;;;;;;;;;;;;25.38;44.56;99832.00;5094133;28;19967;-68
2022/07/26 04:18:37;;;;;;;;;;;;;;;25.40;44.43;99833.31;5094134;28;20358;-68
2022/07/26 04:21:02;;;;;;;;;;;;;;;25.38;44.65;99821.06;5092942;28;19969;-67
2022/07/26 04:23:27;;;;;;;;;;;;;;;25.36;44.53;99824.09;5093619;28;19958;-67
2022/07/26 04:25:53;;;;;;;;;;;;;;;25.38;44.28;99810.13;5093572;28;19929;-67
2022/07/26 04:28:18;;;;;;;;;;;;;;;25.41;44.44;99815.00;5094046;28;19920;-67
2022/07/26 04:30:43;;;;;;;;;;;;;;;25.42;44.56;99816.59;5092678;28;19916;-67
2022/07/26 04:33:08;;;;;;;;;;;;;;;25.38;44.37;99815.59;5093898;28;19995;-67
2022/07/26 04:35:34;;;;;;;;;;;;;;;25.41;44.30;99809.53;5093933;28;20298;-67
2022/07/26 04:38:00;;;;;;;;;;;;;;;25.42;44.78;99798.28;5093846;28;20283;-68
2022/07/26 04:40:27;;;;;;;;;;;;;;;25.42;44.45;99800.19;5093506;28;19927;-68
2022/07/26 04:42:52;;;;;;;;;;;;;;;25.42;44.59;99801.03;5093715;28;19916;-68
2022/07/26 04:45:17;;;;;;;;;;;;;;;25.41;44.76;99798.59;5093702;28;20263;-68
2022/07/26 04:47:43;;;;;;;;;;;;;;;25.41;44.78;99793.91;5093554;28;19916;-68
2022/07/26 04:50:09;;;;;;;;;;;;;;;25.42;44.85;99805.66;5093761;28;19969;-68
2022/07/26 04:52:35;;;;;;;;;;;;;;;25.41;44.53;99793.13;5093504;28;20353;-67
2022/07/26 04:55:00;;;;;;;;;;;;;;;25.40;44.85;99796.94;5093688;28;20317;-67
2022/07/26 04:57:26;;;;;;;;;;;;;;;25.42;44.72;99794.72;5093717;28;19917;-67
2022/07/26 04:59:51;;;;;;;;;;;;;;;25.38;44.93;99790.97;5093257;28;20332;-68
2022/07/26 05:02:17;;;;;;;;;;;;;;;25.38;44.73;99799.19;5093487;28;19916;-67
2022/07/26 05:04:42;;;;;;;;;;;;;;;25.40;45.04;99786.00;5093454;28;20351;-67
2022/07/26 05:07:08;;;;;;;;;;;;;;;25.39;44.98;99784.38;5093341;28;19923;-68
2022/07/26 05:09:33;;;;;;;;;;;;;;;25.41;45.07;99788.44;5093831;28;19951;-68
2022/07/26 05:11:58;;;;;;;;;;;;;;;25.37;44.97;99781.97;5093084;28;19923;-68
2022/07/26 05:14:24;;;;;;;;;;;;;;;25.38;45.48;99782.78;5082182;28;19916;-68
2022/07/26 05:16:49;;;;;;;;;;;;;;;25.35;45.21;99784.16;5076623;28;20293;-68
2022/07/26 05:19:14;;;;;;;;;;;;;;;25.35;45.09;99780.63;5076965;28;19962;-68
2022/07/26 05:21:39;;;;;;;;;;;;;;;25.38;44.92;99771.84;5076725;28;19956;-68
2022/07/26 05:24:05;;;;;;;;;;;;;;;25.40;44.98;99777.81;5076744;28;19925;-68
2022/07/26 05:26:30;;;;;;;;;;;;;;;25.28;45.75;99776.38;5076285;28;20303;-68
2022/07/26 05:28:55;;;;;;;;;;;;;;;25.33;45.21;99780.13;5076637;28;20330;-68
2022/07/26 05:31:21;;;;;;;;;;;;;;;25.39;45.41;99773.44;5076267;28;20263;-68
2022/07/26 05:33:46;;;;;;;;;;;;;;;25.39;45.37;99776.16;5076460;28;19955;-68
2022/07/26 05:36:11;;;;;;;;;;;;;;;25.42;45.41;99762.72;5076406;28;20375;-68
2022/07/26 05:38:37;;;;;;;;;;;;;;;25.40;45.18;99773.13;5076606;28;19917;-68
2022/07/26 05:41:02;;;;;;;;;;;;;;;25.39;45.19;99768.81;5076612;28;19952;-68
2022/07/26 05:43:27;;;;;;;;;;;;;;;25.42;45.41;99768.22;5076357;28;20367;-69
2022/07/26 05:45:53;;;;;;;;;;;;;;;25.41;45.27;99768.50;5076165;28;19927;-68
2022/07/26 05:48:18;;;;;;;;;;;;;;;25.43;45.46;99763.53;5076376;28;19928;-68
2022/07/26 05:50:43;;;;;;;;;;;;;;;25.44;45.30;99760.50;5076421;28;20386;-68
2022/07/26 05:53:09;;;;;;;;;;;;;;;25.44;45.64;99755.03;5076019;28;20331;-68
2022/07/26 05:55:34;;;;;;;;;;;;;;;25.44;45.30;99751.47;5076027;28;19916;-68
2022/07/26 05:57:59;;;;;;;;;;;;;;;25.44;45.38;99748.72;5075909;28;19940;-68
2022/07/26 06:00:25;;;;;;;;;;;;;;;25.44;45.40;99749.56;5075873;28;19924;-68
2022/07/26 06:02:50;;;;;;;;;;;;;;;25.45;45.34;99739.41;5076243;28;19917;-68
2022/07/26 06:05:15;;;;;;;;;;;;;;;25.45;45.44;99744.88;5076215;28;20015;-67
2022/07/26 06:07:40;;;;;;;;;;;;;;;25.45;45.47;99731.22;5076062;28;20275;-67
2022/07/26 06:10:06;;;;;;;;;;;;;;;25.45;45.45;99723.00;5075920;28;19926;-67
2022/07/26 06:12:31;;;;;;;;;;;;;;;25.28;46.09;99718.97;5075970;28;20286;-67
2022/07/26 06:14:56;;;;;;;;;;;;;;;25.40;45.68;99715.69;5090769;28;19916;-68
2022/07/26 06:17:22;;;;;;;;;;;;;;;25.38;45.57;99722.59;5096009;28;19947;-67
2022/07/26 06:19:47;;;;;;;;;;;;;;;25.33;45.91;99711.75;5096122;28;20354;-67
2022/07/26 06:22:12;;;;;;;;;;;;;;;25.35;45.93;99712.25;5095721;28;19947;-67
2022/07/26 06:24:37;;;;;;;;;;;;;;;25.40;45.69;99706.69;5095694;28;19924;-68
2022/07/26 06:27:03;;;;;;;;;;;;;;;25.44;45.50;99710.44;5093892;28;20267;-68
2022/07/26 06:29:28;;;;;;;;;;;;;;;25.36;45.92;99709.22;5095670;28;20053;-68
2022/07/26 06:31:54;;;;;;;;;;;;;;;25.32;46.15;99710.13;5096148;28;20083;-68
2022/07/26 06:34:19;;;;;;;;;;;;;;;25.27;45.94;99706.38;5094442;28;19916;-68
2022/07/26 06:36:44;;;;;;;;;;;;;;;25.36;45.82;99703.75;5095873;28;19920;-68
2022/07/26 06:39:09;;;;;;;;;;;;;;;25.41;45.88;99705.59;5095680;28;20374;-68
2022/07/26 06:41:35;;;;;;;;;;;;;;;25.33;45.99;99703.56;5095797;28;19927;-68
2022/07/26 06:44:00;;;;;;;;;;;;;;;25.36;46.05;99702.97;5095736;28;19916;-68
2022/07/26 06:46:26;;;;;;;;;;;;;;;25.27;46.46;99705.59;5095646;28;19920;-68
2022/07/26 06:48:51;;;;;;;;;;;;;;;25.35;45.89;99696.66;5095603;28;19968;-69
2022/07/26 06:51:17;;;;;;;;;;;;;;;25.38;46.12;99693.31;5095692;28;20320;-68
2022/07/26 06:53:42;;;;;;;;;;;;;;;25.29;46.37;99692.41;5095217;28;20319;-67
2022/07/26 06:56:07;;;;;;;;;;;;;;;25.25;46.47;99692.22;5095049;28;19920;-68
2022/07/26 06:58:32;;;;;;;;;;;;;;;25.36;46.19;99692.00;5097089;28;20057;-68
2022/07/26 07:00:58;;;;;;;;;;;;;;;25.43;45.98;99692.41;5096021;28;20020;-68
2022/07/26 07:03:23;;;;;;;;;;;;;;;25.45;45.91;99692.91;5095940;28;19923;-67
2022/07/26 07:05:48;;;;;;;;;;;;;;;25.35;46.41;99687.66;5095119;28;20285;-68
2022/07/26 07:08:14;;;;;;;;;;;;;;;25.34;46.12;99683.31;5094893;28;20286;-69
2022/07/26 07:10:39;;;;;;;;;;;;;;;25.40;46.02;99682.06;5094754;28;19917;-68
2022/07/26 07:13:04;;;;;;;;;;;;;;;25.48;45.77;99673.16;5094887;28;19916;-68
2022/07/26 07:15:30;;;;;;;;;;;;;;;25.47;45.73;99685.22;5076431;28;19916;-68
2022/07/26 07:17:55;;;;;;;;;;;;;;;25.48;45.85;99686.84;5074860;28;19923;-68
2022/07/26 07:20:20;;;;;;;;;;;;;;;25.48;45.96;99684.09;5075004;28;20003;-68
2022/07/26 07:22:45;;;;;;;;;;;;;;;25.42;45.81;99686.16;5074412;28;20267;-68
2022/07/26 07:25:11;;;;;;;;;;;;;;;25.49;45.69;99677.50;5074285;28;20293;-68
2022/07/26 07:27:36;;;;;;;;;;;;;;;25.44;45.73;99675.69;5074640;28;19923;-68
2022/07/26 07:30:02;;;;;;;;;;;;;;;25.47;45.76;99671.53;5074827;28;19925;-68
2022/07/26 07:32:27;;;;;;;;;;;;;;;25.48;45.98;99662.22;5074163;28;19916;-68
2022/07/26 07:34:54;;;;;;;;;;;;;;;25.48;45.79;99662.22;5073723;28;20475;-68
2022/07/26 07:37:20;;;;;;;;;;;;;;;25.48;45.89;99665.75;5073534;28;19917;-68
2022/07/26 07:39:45;;;;;;;;;;;;;;;25.47;46.00;99657.84;5074528;28;20416;-68
2022/07/26 07:42:10;;;;;;;;;;;;;;;25.54;45.83;99662.94;5074546;28;19917;-68
2022/07/26 07:44:35;;;;;;;;;;;;;;;25.52;45.66;99663.22;5074809;28;20346;-68
2022/07/26 07:47:01;;;;;;;;;;;;;;;25.52;45.58;99663.22;5074445;28;19916;-68
2022/07/26 07:49:26;;;;;;;;;;;;;;;25.40;46.20;99666.47;5074602;28;19916;-68
2022/07/26 07:51:51;;;;;;;;;;;;;;;25.21;46.73;99663.00;5074492;28;19970;-68
2022/07/26 07:54:17;;;;;;;;;;;;;;;25.35;46.21;99655.63;5074354;28;19916;-65
2022/07/26 07:56:42;;;;;;;;;;;;;;;25.38;46.24;99662.44;5074603;28;19938;-66
2022/07/26 07:59:07;;;;;;;;;;;;;;;25.44;45.98;99669.41;5074555;28;19916;-68
2022/07/26 08:01:33;;;;;;;;;;;;;;;25.33;46.13;99659.81;5075125;28;19917;-68
2022/07/26 08:03:58;;;;;;;;;;;;;;;25.40;46.14;99665.66;5075644;28;19916;-66
2022/07/26 08:06:23;;;;;;;;;;;;;;;25.46;45.76;99669.94;5076750;28;19999;-66
2022/07/26 08:08:49;;;;;;;;;;;;;;;25.48;45.77;99656.75;5075033;28;20004;-67
2022/07/26 08:11:14;;;;;;;;;;;;;;;25.54;45.64;99668.41;5074124;28;20285;-67
2022/07/26 08:13:40;;;;;;;;;;;;;;;25.59;45.57;99669.09;5076634;28;19916;-68
2022/07/26 08:16:05;;;;;;;;;;;;;;;25.56;45.37;99664.25;5094213;28;20007;-67
2022/07/26 08:18:30;;;;;;;;;;;;;;;25.58;45.43;99667.50;5093891;28;19978;-67
2022/07/26 08:20:56;;;;;;;;;;;;;;;25.58;45.25;99656.53;5093874;28;19952;-67
2022/07/26 08:23:21;;;;;;;;;;;;;;;25.58;45.35;99664.75;5094284;28;19922;-67
2022/07/26 08:25:46;;;;;;;;;;;;;;;25.58;45.22;99653.00;5093579;28;19927;-67
2022/07/26 08:28:12;;;;;;;;;;;;;;;25.59;45.08;99654.63;5093641;28;19946;-67
2022/07/26 08:30:37;;;;;;;;;;;;;;;25.57;45.16;99648.63;5093328;28;19916;-68
2022/07/26 08:33:03;;;;;;;;;;;;;;;25.60;44.88;99648.84;5092436;28;19916;-67
2022/07/26 08:35:31;;;;;;;;;;;;;;;25.58;45.02;99656.53;5093416;28;20006;-67
2022/07/26 08:37:56;;;;;;;;;;;;;;;25.59;44.70;99644.47;5093682;28;19940;-67
2022/07/26 08:40:21;;;;;;;;;;;;;;;25.61;44.58;99645.00;5093459;28;20341;-67
2022/07/26 08:42:50;;;;;;;;;;;;;;;25.58;44.55;99640.13;5093641;28;20015;-67
2022/07/26 08:45:22;;;;;;;;;;;;;;;25.56;44.49;99630.59;5093351;28;20330;-67
2022/07/26 08:47:47;;;;;;;;;;;;;;;25.56;44.40;99625.97;5093574;28;19920;-67
2022/07/26 08:50:12;;;;;;;;;;;;;;;25.55;44.56;99631.72;5096314;28;19962;-67
2022/07/26 08:52:39;;;;;;;;;;;;;;;25.56;44.50;99628.69;5097443;28;19921;-67
2022/07/26 08:55:04;;;;;;;;;;;;;;;25.53;44.53;99621.09;5097771;28;19916;-67
2022/07/26 08:57:30;;;;;;;;;;;;;;;25.55;44.41;99621.59;5097879;28;20277;-67
2022/07/26 09:00:14;;;;;;;;;;;;;;;25.56;44.45;99620.47;5097747;28;19927;-67
2022/07/26 09:02:40;;;;;;;;;;;;;;;25.53;44.47;99623.81;5096445;28;19916;-67
2022/07/26 09:05:06;;;;;;;;;;;;;;;25.54;44.45;99611.75;5097558;28;20343;-67
2022/07/26 09:07:31;;;;;;;;;;;;;;;25.56;44.32;99611.44;5097464;28;20389;-67
2022/07/26 09:09:58;;;;;;;;;;;;;;;25.55;44.18;99607.91;5097388;28;19980;-67
2022/07/26 09:12:23;;;;;;;;;;;;;;;25.56;44.15;99603.25;5097039;28;20366;-67
2022/07/26 09:14:48;;;;;;;;;;;;;;;25.57;44.21;99605.66;5086011;28;19927;-67
2022/07/26 09:17:14;;;;;;;;;;;;;;;25.51;44.07;99595.97;5076957;28;19923;-68
2022/07/26 09:19:39;;;;;;;;;;;;;;;25.51;44.18;99595.97;5077014;28;20368;-67
2022/07/26 09:22:06;;;;;;;;;;;;;;;25.41;44.38;99594.25;5077146;28;19931;-67
2022/07/26 09:24:32;;;;;;;;;;;;;;;25.41;44.06;99590.72;5076689;28;19920;-67
2022/07/26 09:26:57;;;;;;;;;;;;;;;25.43;44.46;99591.22;5076550;28;20370;-67
2022/07/26 09:29:24;;;;;;;;;;;;;;;25.42;44.71;99586.84;5076858;28;19917;-68
2022/07/26 09:31:49;;;;;;;;;;;;;;;25.27;45.12;99586.06;5077699;28;19994;-68
2022/07/26 09:34:24;;;;;;;;;;;;;;;25.26;45.28;99578.97;5075093;28;20003;-68
2022/07/26 09:36:50;;;;;;;;;;;;;;;25.38;44.86;99583.91;5076341;28;19947;-68
2022/07/26 09:39:16;;;;;;;;;;;;;;;25.42;44.63;99581.38;5076434;28;20003;-68
2022/07/26 09:41:42;;;;;;;;;;;;;;;25.39;44.64;99576.50;5076297;28;19962;-68
2022/07/26 09:44:23;;;;;;;;;;;;;;;25.34;44.83;99576.66;5076732;28;20011;-68
2022/07/26 09:46:52;;;;;;;;;;;;;;;25.39;44.61;99574.59;5076578;28;19920;-68
2022/07/26 09:49:18;;;;;;;;;;;;;;;25.40;44.41;99583.63;5076360;28;20022;-68
2022/07/26 09:51:44;;;;;;;;;;;;;;;25.36;44.69;99580.69;5075991;28;20029;-68
2022/07/26 09:54:10;;;;;;;;;;;;;;;25.43;44.35;99569.34;5075929;28;19922;-68
2022/07/26 09:56:45;;;;;;;;;;;;;;;25.47;44.56;99573.06;5076419;28;19917;-68
2022/07/26 09:59:14;;;;;;;;;;;;;;;25.48;44.32;99574.69;5076148;28;19958;-68
2022/07/26 10:01:40;;;;;;;;;;;;;;;25.44;44.36;99569.03;5075265;28;19917;-68
2022/07/26 10:04:06;;;;;;;;;;;;;;;25.43;44.51;99566.59;5076328;28;19924;-67
2022/07/26 10:06:31;;;;;;;;;;;;;;;25.47;44.19;99573.91;5076247;28;19962;-67
2022/07/26 10:08:57;;;;;;;;;;;;;;;25.44;44.18;99563.56;5075793;28;20332;-68
2022/07/26 10:11:22;;;;;;;;;;;;;;;25.48;44.14;99566.50;5074829;28;19916;-68
2022/07/26 10:13:47;;;;;;;;;;;;;;;25.51;44.13;99560.41;5076905;28;20321;-68
2022/07/26 10:16:31;;;;;;;;;;;;;;;25.48;43.94;99563.75;5096366;28;19916;-69
2022/07/26 10:18:57;;;;;;;;;;;;;;;25.44;44.17;99551.78;5096117;28;19920;-67
2022/07/26 10:21:26;;;;;;;;;;;;;;;25.47;43.99;99552.00;5095777;28;19962;-67
2022/07/26 10:23:56;;;;;;;;;;;;;;;25.50;43.91;99550.56;5096047;28;19920;-67
2022/07/26 10:26:30;;;;;;;;;;;;;;;25.49;44.02;99546.22;5095482;28;19924;-67
2022/07/26 10:29:14;;;;;;;;;;;;;;;25.45;43.96;99546.00;5095761;28;20290;-68
2022/07/26 10:31:40;;;;;;;;;;;;;;;25.45;44.06;99545.22;5095753;28;19916;-68
2022/07/26 10:34:05;;;;;;;;;;;;;;;25.47;43.89;99532.88;5094519;28;20409;-67
2022/07/26 10:36:32;;;;;;;;;;;;;;;25.49;43.66;99543.47;5095483;28;20372;-68
2022/07/26 10:39:04;;;;;;;;;;;;;;;25.46;43.73;99546.84;5095433;28;19916;-68
2022/07/26 10:41:36;;;;;;;;;;;;;;;25.42;43.55;99537.63;5096432;28;19916;-67
2022/07/26 10:44:21;;;;;;;;;;;;;;;25.42;43.61;99545.81;5095710;28;19916;-67
2022/07/26 10:47:06;;;;;;;;;;;;;;;25.50;43.39;99545.09;5095399;28;20404;-67
2022/07/26 10:49:35;;;;;;;;;;;;;;;25.55;43.01;99542.25;5088235;28;20014;-67
2022/07/26 10:52:10;;;;;;;;;;;;;;;25.59;43.08;99539.69;5093824;28;19916;-67
2022/07/26 10:54:54;;;;;;;;;;;;;;;25.62;42.97;99537.16;5096181;28;19969;-67
2022/07/26 10:57:19;;;;;;;;;;;;;;;25.62;42.55;99541.81;5095101;28;19916;-67
2022/07/26 10:59:44;;;;;;;;;;;;;;;25.63;42.75;99536.06;5095311;28;19939;-67
2022/07/26 11:02:21;;;;;;;;;;;;;;;25.63;42.37;99537.97;5095010;28;19920;-67
2022/07/26 11:04:46;;;;;;;;;;;;;;;25.64;42.17;99534.13;5095431;28;19927;-68
2022/07/26 11:07:12;;;;;;;;;;;;;;;25.63;41.87;99535.22;5095331;28;19916;-68
2022/07/26 11:09:37;;;;;;;;;;;;;;;25.60;42.41;99544.88;5094032;28;20267;-67
2022/07/26 11:12:20;;;;;;;;;;;;;;;25.62;41.94;99541.81;5094933;28;19922;-66
2022/07/26 11:14:46;;;;;;;;;;;;;;;25.57;41.87;99540.00;5087565;28;20019;-67
2022/07/26 11:17:23;;;;;;;;;;;;;;;25.58;41.95;99540.84;5074470;28;20351;-67
2022/07/26 11:19:48;;;;;;;;;;;;;;;25.49;42.45;99538.00;5075345;28;19944;-67
2022/07/26 11:22:13;;;;;;;;;;;;;;;25.54;41.89;99543.34;5074856;28;19916;-67
2022/07/26 11:24:42;;;;;;;;;;;;;;;25.54;41.86;99540.63;5074299;28;20442;-67
2022/07/26 11:27:07;;;;;;;;;;;;;;;25.52;41.55;99537.38;5074682;28;19920;-67
2022/07/26 11:29:33;;;;;;;;;;;;;;;25.52;41.80;99540.13;5074551;28;20389;-67
2022/07/26 11:31:58;;;;;;;;;;;;;;;25.47;41.97;99532.03;5074234;28;20363;-67
2022/07/26 11:34:26;;;;;;;;;;;;;;;25.47;41.88;99534.78;5074276;28;19951;-67
2022/07/26 11:36:53;;;;;;;;;;;;;;;25.45;42.17;99531.53;5074572;28;20367;-68
2022/07/26 11:39:28;;;;;;;;;;;;;;;25.43;42.18;99531.03;5074215;28;20000;-67
2022/07/26 11:41:57;;;;;;;;;;;;;;;25.46;41.82;99539.44;5074345;28;19917;-67
2022/07/26 11:44:22;;;;;;;;;;;;;;;25.42;42.13;99534.88;5074051;28;19916;-68
2022/07/26 11:46:48;;;;;;;;;;;;;;;25.43;42.07;99526.38;5074256;28;19924;-67
2022/07/26 11:49:16;;;;;;;;;;;;;;;25.45;42.40;99531.53;5073921;28;19952;-67
2022/07/26 11:51:57;;;;;;;;;;;;;;;25.42;42.16;99518.47;5073787;28;19974;-67
2022/07/26 11:54:23;;;;;;;;;;;;;;;25.41;42.42;99522.34;5074236;28;19917;-67
2022/07/26 11:56:58;;;;;;;;;;;;;;;25.45;42.25;99515.13;5073840;28;19923;-67
2022/07/26 11:59:24;;;;;;;;;;;;;;;25.45;42.25;99513.19;5074165;28;19959;-67
2022/07/26 12:01:50;;;;;;;;;;;;;;;25.44;42.47;99516.22;5072585;28;20362;-67
2022/07/26 12:04:19;;;;;;;;;;;;;;;25.43;42.38;99501.75;5073663;28;19923;-67
2022/07/26 12:06:44;;;;;;;;;;;;;;;25.36;42.63;99509.59;5073708;28;20278;-67
2022/07/26 12:09:09;;;;;;;;;;;;;;;25.33;42.75;99506.66;5074029;28;19917;-67
2022/07/26 12:11:40;;;;;;;;;;;;;;;25.25;42.70;99511.75;5072448;28;20011;-67
2022/07/26 12:14:05;;;;;;;;;;;;;;;25.27;42.95;99514.97;5074869;28;19916;-67
2022/07/26 12:16:34;;;;;;;;;;;;;;;25.35;42.77;99510.69;5092493;28;19916;-68
2022/07/26 12:19:00;;;;;;;;;;;;;;;25.45;42.41;99506.91;5093926;28;19916;-68
2022/07/26 12:21:41;;;;;;;;;;;;;;;25.47;42.53;99496.47;5093717;28;19923;-68
2022/07/26 12:24:07;;;;;;;;;;;;;;;25.43;42.61;99488.06;5093440;28;19951;-68
2022/07/26 12:26:32;;;;;;;;;;;;;;;25.41;42.88;99495.78;5093692;28;20326;-68
2022/07/26 12:31:42;;;;;;;;;;;;;;;25.41;42.83;99501.25;5094022;28;20029;-68
2022/07/26 12:34:07;;;;;;;;;;;;;;;25.47;42.73;99504.69;5093748;28;19920;-68
2022/07/26 12:36:32;;;;;;;;;;;;;;;25.48;42.62;99509.03;5093846;28;19948;-68
2022/07/26 12:38:58;;;;;;;;;;;;;;;25.44;42.79;99503.38;5093568;28;20282;-68
2022/07/26 12:41:29;;;;;;;;;;;;;;;25.42;43.07;99497.41;5094343;28;20002;-68
2022/07/26 12:43:55;;;;;;;;;;;;;;;25.43;43.12;99496.28;5093498;28;19916;-68
2022/07/26 12:46:20;;;;;;;;;;;;;;;25.41;43.25;99498.53;5092224;28;19920;-68